Time;durP1;ratioP1;P1;durP2;ratioP2;P2;SDS_P1;SDS_P2;PMS_P1;PMS_P2;Temp;Humidity;BMP_temperature;BMP_pressure;BME280_temperature;BME280_humidity;BME280_pressure;Samples;Min_cycle;Max_cycle;Signal;HPM_P1;HPM_P2
2024/02/20 00:00:51;;;;;;;9.07;6.40;;;;;;;10.99;100.00;99053.34;5162822;23;20588;-88
2024/02/20 00:02:54;;;;;;;8.50;5.87;;;;;;;10.96;100.00;99048.28;5136969;23;20688;-88
2024/02/20 00:04:56;;;;;;;10.63;5.67;;;;;;;10.95;100.00;99040.53;5136452;23;20565;-85
2024/02/20 00:07:00;;;;;;;9.70;5.53;;;;;;;10.98;100.00;99042.97;5160837;23;20638;-86
2024/02/20 00:09:03;;;;;;;9.60;5.83;;;;;;;10.94;100.00;99044.88;5137614;23;21116;-87
2024/02/20 00:11:06;;;;;;;11.10;5.50;;;;;;;10.93;100.00;99043.22;5162089;23;20671;-87
2024/02/20 00:13:10;;;;;;;10.10;5.97;;;;;;;10.94;100.00;99036.22;5162162;23;20611;-86
2024/02/20 00:15:13;;;;;;;10.20;5.40;;;;;;;10.94;100.00;99031.84;5161985;23;20960;-87
2024/02/20 00:17:17;;;;;;;12.23;5.57;;;;;;;10.93;100.00;99031.91;5162531;23;20568;-86
2024/02/20 00:19:21;;;;;;;8.37;5.40;;;;;;;10.91;100.00;99039.84;5161249;23;20638;-86
2024/02/20 00:21:25;;;;;;;9.90;6.20;;;;;;;10.91;100.00;99039.84;5137504;23;20958;-86
2024/02/20 00:23:29;;;;;;;13.50;6.30;;;;;;;10.87;100.00;99038.34;5187099;22;20674;-87
2024/02/20 00:25:31;;;;;;;9.50;5.80;;;;;;;10.89;100.00;99036.47;5162525;23;21083;-85
2024/02/20 00:27:36;;;;;;;8.27;5.73;;;;;;;10.92;100.00;99045.91;5160438;23;20580;-87
2024/02/20 00:29:41;;;;;;;8.83;5.80;;;;;;;10.94;99.99;99044.88;5162650;23;20638;-87
2024/02/20 00:31:44;;;;;;;10.30;5.80;;;;;;;10.93;100.00;99048.44;5137321;23;20653;-86
2024/02/20 00:33:47;;;;;;;12.00;5.83;;;;;;;10.92;100.00;99044.13;5163786;22;20941;-86
2024/02/20 00:35:50;;;;;;;11.60;5.80;;;;;;;10.90;100.00;99043.38;5161789;23;20575;-86
2024/02/20 00:37:53;;;;;;;10.00;5.80;;;;;;;10.88;100.00;99044.38;5161851;23;20576;-86
2024/02/20 00:39:56;;;;;;;11.40;6.00;;;;;;;10.87;100.00;99043.56;5137427;23;21132;-87
2024/02/20 00:41:59;;;;;;;9.77;5.83;;;;;;;10.87;100.00;99042.72;5161801;23;21186;-86
2024/02/20 00:44:02;;;;;;;9.43;5.70;;;;;;;10.89;100.00;99035.66;5161403;23;20587;-87
2024/02/20 00:46:06;;;;;;;10.40;6.03;;;;;;;10.87;100.00;99046.16;5159127;23;20580;-86
2024/02/20 00:48:10;;;;;;;8.23;5.60;;;;;;;10.89;100.00;99052.13;5160935;23;20650;-86
2024/02/20 00:50:14;;;;;;;9.93;6.17;;;;;;;10.91;100.00;99042.44;5136293;23;20592;-86
2024/02/20 00:52:18;;;;;;;8.73;6.13;;;;;;;10.87;100.00;99038.34;5162504;23;20712;-86
2024/02/20 00:54:22;;;;;;;9.77;5.83;;;;;;;10.85;100.00;99048.03;5137434;23;20581;-86
2024/02/20 00:56:25;;;;;;;11.23;5.40;;;;;;;10.86;100.00;99047.06;5162334;22;20611;-86
2024/02/20 00:58:29;;;;;;;8.87;5.40;;;;;;;10.88;100.00;99041.78;5136011;23;20577;-88
2024/02/20 01:00:32;;;;;;;9.37;6.20;;;;;;;10.89;100.00;99046.09;5161670;23;20596;-89
2024/02/20 01:02:37;;;;;;;9.30;6.00;;;;;;;10.90;100.00;99051.22;5162053;22;20573;-89
2024/02/20 01:04:40;;;;;;;13.37;6.50;;;;;;;10.91;100.00;99045.06;5161817;23;20623;-86
2024/02/20 01:06:44;;;;;;;8.30;5.90;;;;;;;10.91;100.00;99050.28;5163295;22;20684;-86
2024/02/20 01:08:47;;;;;;;14.37;7.90;;;;;;;10.91;99.81;99052.88;5161893;23;20581;-86
2024/02/20 01:10:50;;;;;;;9.40;5.57;;;;;;;10.91;100.00;99047.66;5136441;23;20631;-86
2024/02/20 01:12:54;;;;;;;9.17;5.87;;;;;;;10.90;99.72;99048.59;5162278;23;20616;-86
2024/02/20 01:14:58;;;;;;;9.10;5.73;;;;;;;10.92;100.00;99051.13;5162016;23;20600;-86
2024/02/20 01:17:01;;;;;;;7.90;5.63;;;;;;;10.91;100.00;99060.72;5158980;23;20577;-86
2024/02/20 01:19:07;;;;;;;9.30;5.83;;;;;;;10.89;100.00;99054.75;5161671;23;20797;-85
2024/02/20 01:21:11;;;;;;;8.13;4.93;;;;;;;10.86;100.00;99052.28;5161858;23;20618;-87
2024/02/20 01:23:15;;;;;;;6.43;4.47;;;;;;;10.84;100.00;99048.94;5164342;23;20576;-86
2024/02/20 01:25:18;;;;;;;8.67;5.37;;;;;;;10.83;99.75;99051.63;5161424;23;20576;-87
2024/02/20 01:27:22;;;;;;;5.97;4.80;;;;;;;10.79;100.00;99050.09;5159342;23;20935;-87
2024/02/20 01:29:25;;;;;;;8.00;4.90;;;;;;;10.77;99.83;99048.53;5162038;22;20619;-87
2024/02/20 01:31:28;;;;;;;7.17;4.53;;;;;;;10.77;100.00;99049.34;5162314;23;20638;-87
2024/02/20 01:33:32;;;;;;;5.47;4.27;;;;;;;10.77;98.87;99053.75;5162214;23;20612;-86
2024/02/20 01:35:38;;;;;;;6.53;4.63;;;;;;;10.76;99.65;99054.66;5161763;23;20636;-87
2024/02/20 01:37:41;;;;;;;7.30;4.77;;;;;;;10.74;99.24;99051.28;5160935;23;20683;-87
2024/02/20 01:39:45;;;;;;;6.63;4.50;;;;;;;10.74;99.83;99056.50;5167368;22;21177;-84
2024/02/20 01:41:48;;;;;;;8.27;4.97;;;;;;;10.74;98.80;99053.91;5162327;23;20599;-86
2024/02/20 01:43:52;;;;;;;8.80;4.60;;;;;;;10.74;99.25;99051.28;5136962;23;20630;-86
2024/02/20 01:45:55;;;;;;;6.80;4.00;;;;;;;10.73;99.22;99055.66;5160734;23;20560;-85
2024/02/20 01:48:01;;;;;;;7.70;4.30;;;;;;;10.72;98.80;99053.13;5161331;23;20928;-86
2024/02/20 01:50:07;;;;;;;5.30;4.00;;;;;;;10.69;100.00;99051.53;5137397;23;20636;-86
2024/02/20 01:52:14;;;;;;;6.97;4.37;;;;;;;10.61;98.97;99048.47;5137305;23;20605;-87
2024/02/20 01:54:18;;;;;;;7.20;4.40;;;;;;;10.57;100.00;99051.31;5137379;23;20584;-84
2024/02/20 01:56:21;;;;;;;10.93;4.90;;;;;;;10.57;100.00;99059.16;5188019;22;20576;-87
2024/02/20 01:58:25;;;;;;;6.23;3.87;;;;;;;10.56;99.76;99063.53;5136510;23;20574;-87
2024/02/20 02:00:28;;;;;;;5.40;3.90;;;;;;;10.54;100.00;99065.38;5160547;23;20679;-86
2024/02/20 02:02:31;;;;;;;11.10;4.70;;;;;;;10.55;100.00;99066.22;5135981;23;21122;-84
2024/02/20 02:04:34;;;;;;;6.43;4.17;;;;;;;10.54;99.03;99064.53;5136605;23;20669;-86
2024/02/20 02:06:38;;;;;;;6.90;4.10;;;;;;;10.51;99.38;99065.56;5160991;23;20608;-86
2024/02/20 02:08:42;;;;;;;6.37;4.10;;;;;;;10.54;99.39;99064.53;5160775;23;20576;-86
2024/02/20 02:10:46;;;;;;;5.90;4.00;;;;;;;10.55;99.92;99063.63;5161924;23;20556;-86
2024/02/20 02:12:50;;;;;;;6.17;3.70;;;;;;;10.52;99.44;99066.38;5161670;23;21354;-86
2024/02/20 02:14:53;;;;;;;5.90;4.10;;;;;;;10.53;99.43;99068.91;5161328;23;20926;-86
2024/02/20 02:16:57;;;;;;;6.70;4.13;;;;;;;10.53;100.00;99070.69;5161087;23;20667;-86
2024/02/20 02:19:00;;;;;;;8.93;4.30;;;;;;;10.51;99.44;99068.16;5162701;23;20580;-86
2024/02/20 02:21:04;;;;;;;6.27;3.70;;;;;;;10.48;99.88;99068.31;5162007;23;20584;-84
2024/02/20 02:23:08;;;;;;;6.37;4.03;;;;;;;10.49;99.53;99071.75;5136230;23;20588;-87
2024/02/20 02:25:12;;;;;;;8.10;4.63;;;;;;;10.50;100.00;99074.28;5161464;23;21234;-86
2024/02/20 02:27:17;;;;;;;6.60;4.53;;;;;;;10.49;99.00;99069.16;5161073;23;21104;-87
2024/02/20 02:29:20;;;;;;;7.47;4.13;;;;;;;10.47;100.00;99071.00;5188979;22;20587;-85
2024/02/20 02:31:24;;;;;;;6.67;4.20;;;;;;;10.46;99.67;99077.13;5188645;22;20567;-86
2024/02/20 02:33:27;;;;;;;6.80;3.90;;;;;;;10.50;99.85;99078.66;5137639;23;20649;-85
2024/02/20 02:35:30;;;;;;;6.87;4.10;;;;;;;10.49;99.69;99075.22;5189306;22;20579;-85
2024/02/20 02:37:34;;;;;;;6.80;4.00;;;;;;;10.50;99.51;99078.66;5135543;23;21199;-86
2024/02/20 02:39:37;;;;;;;6.03;4.20;;;;;;;10.46;98.59;99079.75;5161726;23;20592;-86
2024/02/20 02:41:41;;;;;;;4.97;4.00;;;;;;;10.44;98.42;99079.00;5190546;22;21001;-86
2024/02/20 02:43:46;;;;;;;8.52;4.68;;;;;;;10.42;98.26;99083.44;5163988;23;21134;-86
2024/02/20 02:45:49;;;;;;;6.80;3.90;;;;;;;10.43;99.68;99085.97;5163261;23;20625;-85
2024/02/20 02:47:53;;;;;;;4.80;3.23;;;;;;;10.47;98.39;99091.88;5163496;23;21111;-85
2024/02/20 02:49:56;;;;;;;6.30;3.53;;;;;;;10.45;98.20;99101.53;5138905;23;20664;-86
2024/02/20 02:52:00;;;;;;;7.50;3.90;;;;;;;10.44;98.27;99105.91;5188506;22;20572;-86
2024/02/20 02:54:03;;;;;;;7.30;3.80;;;;;;;10.42;98.08;99099.09;5163280;23;20604;-86
2024/02/20 02:56:10;;;;;;;8.63;3.50;;;;;;;10.42;97.61;99104.31;5190527;22;20574;-87
2024/02/20 02:58:12;;;;;;;6.30;3.30;;;;;;;10.38;97.95;99093.16;5138423;23;20680;-81
2024/02/20 03:00:18;;;;;;;5.10;2.90;;;;;;;10.37;97.67;99101.06;5137253;23;20656;-81
2024/02/20 03:02:21;;;;;;;6.60;3.03;;;;;;;10.35;97.02;99095.94;5137765;23;20576;-81
2024/02/20 03:04:25;;;;;;;6.53;3.10;;;;;;;10.32;97.13;99100.47;5162163;23;21194;-81
2024/02/20 03:06:28;;;;;;;6.27;2.93;;;;;;;10.30;97.45;99104.06;5162676;23;20611;-81
2024/02/20 03:08:31;;;;;;;5.83;2.87;;;;;;;10.22;97.28;99098.41;5162769;23;20576;-82
2024/02/20 03:10:34;;;;;;;4.50;2.57;;;;;;;10.20;96.54;99101.09;5136844;23;20608;-81
2024/02/20 03:12:38;;;;;;;9.13;3.10;;;;;;;10.18;97.38;99104.69;5138484;23;20643;-81
2024/02/20 03:14:40;;;;;;;4.83;2.70;;;;;;;10.21;96.61;99108.00;5137970;23;21282;-80
2024/02/20 03:16:44;;;;;;;6.30;2.50;;;;;;;10.18;97.50;99115.13;5136335;23;20599;-81
2024/02/20 03:18:48;;;;;;;5.63;3.00;;;;;;;10.18;97.81;99115.13;5162880;23;20888;-81
2024/02/20 03:20:51;;;;;;;3.67;2.13;;;;;;;10.18;96.54;99120.34;5163320;23;20611;-81
2024/02/20 03:22:53;;;;;;;7.23;2.67;;;;;;;10.14;95.60;99122.25;5162669;23;20679;-81
2024/02/20 03:24:57;;;;;;;7.03;2.80;;;;;;;10.12;95.48;99121.50;5161757;23;20572;-81
2024/02/20 03:27:01;;;;;;;7.40;2.57;;;;;;;10.11;95.41;99132.84;5137164;23;20612;-81
2024/02/20 03:29:04;;;;;;;6.20;3.10;;;;;;;10.06;96.44;99129.63;5138558;23;20584;-81
2024/02/20 03:31:07;;;;;;;6.90;2.40;;;;;;;10.04;95.03;99128.00;5189252;22;20581;-81
2024/02/20 03:33:12;;;;;;;6.47;2.50;;;;;;;10.03;95.39;99136.75;5162582;23;20619;-82
2024/02/20 03:35:20;;;;;;;6.03;2.10;;;;;;;10.04;95.85;99134.06;5163110;23;20657;-81
2024/02/20 03:37:24;;;;;;;7.45;2.70;;;;;;;10.01;95.15;99141.19;5188329;22;20633;-81
2024/02/20 03:39:27;;;;;;;9.23;2.33;;;;;;;9.97;95.75;99143.09;5188236;22;20964;-81
2024/02/20 03:41:30;;;;;;;8.17;2.10;;;;;;;9.94;95.89;99134.59;5163040;23;20671;-82
2024/02/20 03:43:34;;;;;;;11.43;2.80;;;;;;;9.93;95.99;99138.94;5161049;23;20577;-82
2024/02/20 03:45:37;;;;;;;5.80;2.20;;;;;;;9.94;95.79;99145.03;5162558;23;20579;-81
2024/02/20 03:47:40;;;;;;;8.15;2.70;;;;;;;9.96;95.71;99145.78;5161925;23;20594;-80
2024/02/20 03:49:47;;;;;;;7.60;2.30;;;;;;;10.00;94.46;99149.94;5161173;23;20178;-81
2024/02/20 03:51:50;;;;;;;5.67;2.47;;;;;;;9.97;95.01;99158.75;5162532;23;20637;-81
2024/02/20 03:53:53;;;;;;;8.48;3.50;;;;;;;9.89;94.10;99155.63;5137997;23;20604;-81
2024/02/20 03:55:56;;;;;;;7.03;2.73;;;;;;;9.87;93.31;99149.63;5137318;23;20178;-81
2024/02/20 03:58:01;;;;;;;5.80;2.07;;;;;;;9.86;93.44;99166.22;5162153;23;20573;-82
2024/02/20 04:00:11;;;;;;;10.43;2.85;;;;;;;9.84;93.08;99155.94;5161812;23;20592;-81
2024/02/20 04:02:14;;;;;;;8.93;2.73;;;;;;;9.80;92.82;99159.59;5163113;23;20173;-81
2024/02/20 04:04:19;;;;;;;8.50;2.57;;;;;;;9.75;92.33;99158.97;5136565;23;20573;-81
2024/02/20 04:06:24;;;;;;;7.30;2.50;;;;;;;9.78;92.79;99164.03;5162505;23;20662;-87
2024/02/20 04:08:28;;;;;;;9.40;3.13;;;;;;;9.74;92.67;99167.69;5163748;23;20177;-86
2024/02/20 04:10:31;;;;;;;12.40;3.20;;;;;;;9.72;92.21;99174.75;5163093;23;20556;-87
2024/02/20 04:12:34;;;;;;;6.00;2.70;;;;;;;9.65;92.17;99169.00;5162675;23;20626;-85
2024/02/20 04:14:38;;;;;;;14.40;3.45;;;;;;;9.64;92.11;99171.69;5137394;23;21353;-86
2024/02/20 04:16:41;;;;;;;6.82;2.83;;;;;;;9.65;92.37;99178.56;5162809;23;20210;-86
2024/02/20 04:18:44;;;;;;;5.87;2.80;;;;;;;9.68;91.39;99173.19;5164214;23;20646;-85
2024/02/20 04:20:48;;;;;;;7.93;3.00;;;;;;;9.67;91.46;99176.75;5163830;23;20691;-86
2024/02/20 04:22:52;;;;;;;12.23;3.30;;;;;;;9.64;91.92;99182.09;5163298;23;20634;-86
2024/02/20 04:24:55;;;;;;;11.43;2.80;;;;;;;9.66;91.66;99190.66;5163981;23;20185;-87
2024/02/20 04:26:58;;;;;;;7.50;3.07;;;;;;;9.65;91.86;99188.97;5137289;23;20561;-86
2024/02/20 04:29:02;;;;;;;5.33;2.10;;;;;;;9.68;91.64;99191.44;5190921;22;20572;-87
2024/02/20 04:31:05;;;;;;;8.60;2.50;;;;;;;9.63;91.49;99196.84;5163968;23;20587;-87
2024/02/20 04:33:08;;;;;;;6.20;2.90;;;;;;;9.61;91.33;99203.06;5137477;23;20623;-86
2024/02/20 04:35:12;;;;;;;7.93;2.57;;;;;;;9.60;91.29;99202.22;5163713;23;20600;-87
2024/02/20 04:37:15;;;;;;;8.95;2.22;;;;;;;9.57;91.49;99206.72;5160487;23;20592;-85
2024/02/20 04:39:20;;;;;;;12.40;2.60;;;;;;;9.54;91.51;99206.88;5162750;23;20181;-87
2024/02/20 04:41:26;;;;;;;8.65;2.25;;;;;;;9.57;91.37;99209.31;5161715;23;20598;-87
2024/02/20 04:43:29;;;;;;;7.13;2.50;;;;;;;9.57;91.48;99211.94;5162022;23;20260;-86
2024/02/20 04:45:32;;;;;;;10.30;2.88;;;;;;;9.59;91.19;99207.50;5137002;23;21429;-86
2024/02/20 04:47:34;;;;;;;6.18;2.40;;;;;;;9.60;91.73;99210.03;5162310;23;20181;-87
2024/02/20 04:49:38;;;;;;;8.48;2.90;;;;;;;9.62;91.70;99215.16;5163279;23;20529;-87
2024/02/20 04:51:42;;;;;;;11.90;3.00;;;;;;;9.63;91.70;99215.09;5138284;23;20225;-86
2024/02/20 04:53:44;;;;;;;7.65;2.28;;;;;;;9.64;91.83;99215.97;5163032;23;20568;-86
2024/02/20 04:55:48;;;;;;;8.53;2.83;;;;;;;9.65;91.92;99222.84;5187198;22;20261;-87
2024/02/20 04:57:52;;;;;;;10.87;3.20;;;;;;;9.69;91.74;99227.00;5136811;23;20589;-85
2024/02/20 04:59:56;;;;;;;14.53;3.13;;;;;;;9.69;91.83;99227.00;5135755;23;20584;-85
2024/02/20 05:02:00;;;;;;;6.17;2.40;;;;;;;9.67;91.36;99224.47;5160753;23;21162;-87
2024/02/20 05:04:04;;;;;;;7.37;2.80;;;;;;;9.69;92.06;99227.00;5137088;23;20624;-84
2024/02/20 05:06:08;;;;;;;8.38;2.85;;;;;;;9.68;91.69;99220.94;5186727;22;20634;-87
2024/02/20 05:08:11;;;;;;;7.13;2.57;;;;;;;9.69;91.46;99232.19;5160952;23;20204;-87
2024/02/20 05:10:14;;;;;;;7.93;3.00;;;;;;;9.70;91.94;99234.72;5163204;23;20674;-87
2024/02/20 05:12:19;;;;;;;7.33;2.53;;;;;;;9.70;91.33;99231.28;5190294;22;20581;-87
2024/02/20 05:14:22;;;;;;;7.13;2.30;;;;;;;9.74;91.07;99235.44;5162332;23;20608;-86
2024/02/20 05:16:26;;;;;;;10.80;2.60;;;;;;;9.74;91.50;99235.44;5137497;23;20636;-87
2024/02/20 05:18:29;;;;;;;9.80;3.53;;;;;;;9.75;91.32;99235.34;5188713;22;20587;-81
2024/02/20 05:20:32;;;;;;;7.17;3.23;;;;;;;9.76;91.45;99237.06;5189540;22;20579;-81
2024/02/20 05:22:35;;;;;;;7.43;3.43;;;;;;;9.76;91.15;99241.41;5162214;23;20615;-80
2024/02/20 05:24:41;;;;;;;11.83;3.57;;;;;;;9.76;91.09;99244.88;5188356;22;20632;-83
2024/02/20 05:26:44;;;;;;;8.73;3.17;;;;;;;9.76;91.48;99234.44;5136301;23;21002;-83
2024/02/20 05:28:49;;;;;;;10.60;3.60;;;;;;;9.81;91.03;99239.44;5189359;22;20590;-84
2024/02/20 05:30:52;;;;;;;10.27;2.90;;;;;;;9.78;90.94;99244.78;5163012;23;21220;-84
2024/02/20 05:32:55;;;;;;;8.45;2.92;;;;;;;9.78;90.81;99245.63;5162660;23;20635;-83
2024/02/20 05:34:58;;;;;;;7.60;3.00;;;;;;;9.80;91.01;99240.34;5188740;22;20245;-83
2024/02/20 05:37:02;;;;;;;7.15;2.83;;;;;;;9.80;91.22;99251.59;5187243;22;20593;-83
2024/02/20 05:39:07;;;;;;;8.23;2.70;;;;;;;9.82;91.67;99246.31;5162569;23;20204;-83
2024/02/20 05:41:10;;;;;;;8.20;2.63;;;;;;;9.81;90.67;99252.47;5189639;22;20586;-83
2024/02/20 05:43:14;;;;;;;8.60;3.20;;;;;;;9.80;90.59;99246.41;5162128;23;20614;-83
2024/02/20 05:45:19;;;;;;;9.43;3.13;;;;;;;9.80;90.79;99248.16;5160575;23;20588;-83
2024/02/20 05:47:22;;;;;;;6.33;3.00;;;;;;;9.82;90.81;99252.41;5160397;23;20184;-84
2024/02/20 05:49:25;;;;;;;6.80;2.57;;;;;;;9.82;90.74;99248.94;5186939;22;20637;-83
2024/02/20 05:51:30;;;;;;;12.67;2.73;;;;;;;9.78;90.32;99263.88;5136586;23;20577;-84
2024/02/20 05:53:33;;;;;;;6.63;2.60;;;;;;;9.78;89.95;99260.44;5161463;23;20608;-83
2024/02/20 05:55:37;;;;;;;11.07;2.70;;;;;;;9.76;90.16;99250.06;5160894;23;20615;-84
2024/02/20 05:57:42;;;;;;;9.53;2.77;;;;;;;9.78;89.94;99252.63;5135879;23;20648;-83
2024/02/20 05:59:45;;;;;;;18.50;3.23;;;;;;;9.78;89.61;99247.41;5188865;22;20889;-83
2024/02/20 06:01:50;;;;;;;7.20;3.13;;;;;;;9.77;89.80;99253.53;5137092;23;20672;-83
2024/02/20 06:03:53;;;;;;;10.63;3.57;;;;;;;9.76;89.74;99257.03;5161963;23;20955;-83
2024/02/20 06:05:55;;;;;;;9.70;2.90;;;;;;;9.75;89.87;99260.56;5135029;23;20605;-83
2024/02/20 06:07:59;;;;;;;10.32;2.75;;;;;;;9.73;89.51;99260.66;5160335;23;20610;-84
2024/02/20 06:10:04;;;;;;;8.10;3.03;;;;;;;9.69;89.24;99266.06;5161300;23;20173;-84
2024/02/20 06:12:09;;;;;;;12.17;2.77;;;;;;;9.68;88.89;99267.84;5136352;23;20589;-84
2024/02/20 06:14:12;;;;;;;11.13;2.73;;;;;;;9.65;89.11;99259.28;5191100;22;20560;-83
2024/02/20 06:16:16;;;;;;;10.00;3.03;;;;;;;9.66;88.75;99268.81;5137333;23;20597;-83
2024/02/20 06:18:20;;;;;;;15.20;2.90;;;;;;;9.66;89.32;99269.63;5137258;23;20659;-84
2024/02/20 06:20:23;;;;;;;11.17;3.00;;;;;;;9.65;88.81;99267.97;5137824;23;21145;-84
2024/02/20 06:22:26;;;;;;;7.77;2.80;;;;;;;9.63;88.95;99271.56;5163386;23;20661;-83
2024/02/20 06:24:28;;;;;;;14.25;4.00;;;;;;;9.63;89.32;99274.16;5163385;23;20580;-83
2024/02/20 06:26:34;;;;;;;9.47;3.10;;;;;;;9.64;88.95;99275.84;5137247;23;20262;-83
2024/02/20 06:28:37;;;;;;;8.67;2.63;;;;;;;9.64;89.05;99278.47;5139031;23;20580;-83
2024/02/20 06:30:43;;;;;;;9.03;2.77;;;;;;;9.60;88.50;99282.09;5139054;23;20575;-83
2024/02/20 06:32:46;;;;;;;8.05;2.70;;;;;;;9.63;89.06;99289.78;5139107;23;21111;-84
2024/02/20 06:34:51;;;;;;;15.93;3.22;;;;;;;9.65;89.13;99282.72;5163452;23;20173;-83
2024/02/20 06:36:54;;;;;;;11.80;3.93;;;;;;;9.65;89.00;99286.19;5162860;23;20177;-84
2024/02/20 06:38:57;;;;;;;9.93;3.15;;;;;;;9.66;88.81;99292.25;5139014;23;20580;-84
2024/02/20 06:41:02;;;;;;;8.33;2.90;;;;;;;9.67;88.78;99288.75;5162943;23;20641;-85
2024/02/20 06:43:05;;;;;;;10.13;3.05;;;;;;;9.67;89.70;99293.94;5138455;23;20680;-84
2024/02/20 06:45:09;;;;;;;10.82;4.57;;;;;;;9.68;89.36;99304.28;5163618;23;20170;-82
2024/02/20 06:47:15;;;;;;;8.20;2.43;;;;;;;9.68;89.18;99308.63;5163481;23;20193;-82
2024/02/20 06:49:18;;;;;;;9.00;2.83;;;;;;;9.65;89.19;99296.63;5139415;23;20577;-83
2024/02/20 06:51:24;;;;;;;15.60;3.00;;;;;;;9.68;89.63;99306.91;5164518;23;20568;-82
2024/02/20 06:53:27;;;;;;;8.15;2.65;;;;;;;9.70;89.45;99318.09;5190761;22;20579;-82
2024/02/20 06:55:31;;;;;;;10.10;3.20;;;;;;;9.70;89.40;99312.03;5162944;23;20252;-83
2024/02/20 06:57:35;;;;;;;11.23;2.87;;;;;;;9.71;89.55;99319.78;5163314;23;20892;-83
2024/02/20 06:59:40;;;;;;;10.13;2.60;;;;;;;9.74;89.65;99318.78;5163675;23;20584;-83
2024/02/20 07:01:43;;;;;;;14.17;4.60;;;;;;;9.76;89.83;99319.53;5139020;23;20178;-83
2024/02/20 07:03:48;;;;;;;9.38;3.15;;;;;;;9.78;89.83;99325.56;5164446;23;20580;-83
2024/02/20 07:05:52;;;;;;;12.93;4.37;;;;;;;9.83;89.13;99320.97;5163401;23;20892;-83
2024/02/20 07:07:57;;;;;;;16.90;5.10;;;;;;;9.83;89.88;99328.78;5189305;22;20583;-83
2024/02/20 07:10:00;;;;;;;12.93;3.00;;;;;;;9.84;89.71;99326.94;5136582;23;20585;-83
2024/02/20 07:12:04;;;;;;;11.90;3.70;;;;;;;9.89;89.48;99334.56;5187090;22;20175;-83
2024/02/20 07:14:07;;;;;;;10.07;3.27;;;;;;;9.90;89.60;99338.84;5138094;23;20628;-83
2024/02/20 07:16:11;;;;;;;11.57;3.40;;;;;;;9.94;89.32;99338.69;5137703;23;20609;-83
2024/02/20 07:18:14;;;;;;;11.90;3.15;;;;;;;9.95;89.66;99342.13;5162312;23;20903;-84
2024/02/20 07:20:17;;;;;;;11.15;2.95;;;;;;;9.96;89.90;99339.44;5138920;23;20180;-83
2024/02/20 07:22:20;;;;;;;10.30;3.00;;;;;;;9.97;90.09;99348.97;5190147;22;20555;-83
2024/02/20 07:24:25;;;;;;;9.70;2.63;;;;;;;9.99;90.59;99347.13;5138188;23;20604;-83
2024/02/20 07:26:28;;;;;;;12.73;4.63;;;;;;;10.00;90.67;99353.22;5190112;22;20209;-83
2024/02/20 07:28:31;;;;;;;6.32;2.75;;;;;;;10.01;90.04;99358.34;5162968;23;20881;-83
2024/02/20 07:30:34;;;;;;;13.80;2.90;;;;;;;10.03;90.22;99360.88;5163123;23;20173;-83
2024/02/20 07:32:37;;;;;;;7.13;3.10;;;;;;;10.05;89.76;99357.28;5162568;23;20615;-83
2024/02/20 07:34:41;;;;;;;12.10;3.30;;;;;;;10.09;90.04;99363.22;5164571;23;20173;-83
2024/02/20 07:36:48;;;;;;;11.57;3.20;;;;;;;10.12;90.30;99370.88;5137835;23;20600;-87
2024/02/20 07:38:51;;;;;;;8.87;2.83;;;;;;;10.12;90.07;99363.91;5163697;23;20642;-87
2024/02/20 07:40:56;;;;;;;7.07;2.90;;;;;;;10.16;89.92;99359.38;5138779;23;20596;-86
2024/02/20 07:43:00;;;;;;;13.03;4.13;;;;;;;10.18;89.53;99360.16;5138214;23;20580;-86
2024/02/20 07:45:04;;;;;;;5.90;3.20;;;;;;;10.22;89.72;99370.38;5162451;23;20565;-87
2024/02/20 07:47:08;;;;;;;15.80;3.60;;;;;;;10.24;90.27;99371.16;5159587;23;20174;-86
2024/02/20 07:49:11;;;;;;;8.10;3.03;;;;;;;10.24;90.04;99373.78;5138805;23;20208;-86
2024/02/20 07:51:15;;;;;;;12.70;3.50;;;;;;;10.24;89.75;99372.91;5164534;23;20622;-86
2024/02/20 07:53:19;;;;;;;9.18;3.05;;;;;;;10.22;89.38;99369.53;5164260;23;20938;-86
2024/02/20 07:55:22;;;;;;;11.67;3.07;;;;;;;10.20;90.24;99368.75;5164324;23;20182;-86
2024/02/20 07:57:26;;;;;;;11.83;2.70;;;;;;;10.20;89.52;99380.03;5163583;23;20632;-85
2024/02/20 07:59:30;;;;;;;11.00;2.63;;;;;;;10.20;89.85;99373.97;5164387;23;20554;-86
2024/02/20 08:01:33;;;;;;;15.17;2.87;;;;;;;10.21;89.80;99384.34;5190731;22;20547;-86
2024/02/20 08:03:37;;;;;;;9.53;2.90;;;;;;;10.21;89.59;99381.72;5163258;23;20583;-87
2024/02/20 08:05:41;;;;;;;9.40;2.92;;;;;;;10.23;89.27;99377.28;5137662;23;20609;-88
2024/02/20 08:07:44;;;;;;;8.70;2.50;;;;;;;10.26;89.88;99382.34;5160952;23;20174;-87
2024/02/20 08:09:48;;;;;;;7.20;2.60;;;;;;;10.30;89.42;99388.25;5189786;22;20865;-86
2024/02/20 08:11:52;;;;;;;13.23;4.03;;;;;;;10.34;88.91;99388.03;5161726;23;20646;-87
2024/02/20 08:13:58;;;;;;;7.80;2.77;;;;;;;10.36;88.99;99386.22;5161941;23;21154;-87
2024/02/20 08:16:02;;;;;;;7.70;3.17;;;;;;;10.35;88.73;99394.97;5162126;23;20606;-87
2024/02/20 08:18:06;;;;;;;6.30;2.77;;;;;;;10.38;89.76;99393.03;5189442;22;20587;-87
2024/02/20 08:20:10;;;;;;;6.70;2.83;;;;;;;10.40;89.30;99393.84;5137830;23;20623;-88
2024/02/20 08:22:14;;;;;;;7.73;2.60;;;;;;;10.43;89.48;99393.69;5161086;23;20588;-87
2024/02/20 08:24:19;;;;;;;11.10;3.10;;;;;;;10.47;88.79;99397.84;5162596;23;20683;-87
2024/02/20 08:26:22;;;;;;;8.13;2.70;;;;;;;10.53;88.30;99405.38;5188351;22;20682;-86
2024/02/20 08:28:25;;;;;;;6.67;3.03;;;;;;;10.59;88.80;99405.09;5160635;23;21146;-88
2024/02/20 08:30:30;;;;;;;12.90;3.30;;;;;;;10.65;88.65;99404.78;5135326;23;20700;-87
2024/02/20 08:32:32;;;;;;;8.03;2.60;;;;;;;10.70;89.75;99407.19;5188610;22;20593;-87
2024/02/20 08:34:35;;;;;;;9.70;3.07;;;;;;;10.74;89.07;99406.97;5162908;23;20588;-87
2024/02/20 08:36:39;;;;;;;14.00;3.90;;;;;;;10.80;87.99;99405.84;5161296;23;20837;-88
2024/02/20 08:38:43;;;;;;;9.23;3.30;;;;;;;10.84;87.47;99409.06;5137454;23;21121;-87
2024/02/20 08:40:46;;;;;;;8.93;3.23;;;;;;;10.85;88.06;99415.13;5161893;23;20667;-87
2024/02/20 08:42:49;;;;;;;9.63;2.60;;;;;;;10.90;88.13;99407.94;5162353;23;20599;-87
2024/02/20 08:44:53;;;;;;;11.13;3.23;;;;;;;10.93;87.23;99405.13;5132826;23;20636;-86
2024/02/20 08:46:58;;;;;;;10.37;3.07;;;;;;;10.94;87.21;99409.44;5161397;23;20891;-87
2024/02/20 08:49:02;;;;;;;9.40;2.80;;;;;;;10.92;86.25;99412.13;5163181;23;20584;-87
2024/02/20 08:51:05;;;;;;;6.67;2.90;;;;;;;10.97;86.10;99409.31;5162354;23;20618;-87
2024/02/20 08:53:10;;;;;;;12.97;3.70;;;;;;;11.03;85.33;99409.00;5161838;23;20588;-87
2024/02/20 08:55:14;;;;;;;8.93;3.30;;;;;;;11.03;85.03;99414.22;5163100;23;20576;-88
2024/02/20 08:57:17;;;;;;;7.37;3.10;;;;;;;11.05;86.43;99412.38;5135940;23;21506;-87
2024/02/20 08:59:20;;;;;;;8.53;3.03;;;;;;;11.05;84.98;99415.00;5189898;22;20915;-88
2024/02/20 09:01:24;;;;;;;7.37;3.23;;;;;;;11.08;86.57;99423.53;5137841;23;20616;-88
2024/02/20 09:03:30;;;;;;;9.13;2.90;;;;;;;11.11;86.30;99409.47;5161754;23;20587;-88
2024/02/20 09:05:34;;;;;;;9.70;3.23;;;;;;;11.14;85.81;99411.94;5189210;22;20604;-88
2024/02/20 09:07:38;;;;;;;12.53;3.73;;;;;;;11.22;85.69;99412.41;5136322;23;20592;-82
2024/02/20 09:09:41;;;;;;;10.47;3.53;;;;;;;11.34;86.37;99423.09;5137821;23;20609;-79
2024/02/20 09:11:44;;;;;;;10.70;3.53;;;;;;;11.42;87.15;99420.94;5189761;22;21076;-79
2024/02/20 09:13:48;;;;;;;13.10;4.37;;;;;;;11.50;87.58;99426.63;5162470;23;20572;-79
2024/02/20 09:15:53;;;;;;;9.47;3.60;;;;;;;11.53;85.71;99421.25;5161485;23;20580;-79
2024/02/20 09:17:58;;;;;;;8.73;3.53;;;;;;;11.55;85.89;99422.88;5136367;23;20637;-79
2024/02/20 09:20:02;;;;;;;9.23;3.03;;;;;;;11.56;85.62;99429.81;5162132;23;20655;-79
2024/02/20 09:22:09;;;;;;;12.53;3.20;;;;;;;11.55;85.34;99427.28;5162860;23;20667;-79
2024/02/20 09:24:13;;;;;;;12.40;3.77;;;;;;;11.45;86.60;99436.44;5188854;22;20567;-79
2024/02/20 09:26:20;;;;;;;7.37;3.23;;;;;;;11.42;85.05;99429.59;5136089;23;20586;-80
2024/02/20 09:28:23;;;;;;;7.33;3.80;;;;;;;11.36;87.11;99429.06;5188282;22;20633;-80
2024/02/20 09:30:26;;;;;;;7.70;3.10;;;;;;;11.33;86.68;99427.44;5162570;23;21457;-79
2024/02/20 09:32:30;;;;;;;10.17;3.53;;;;;;;11.34;86.09;99428.31;5160648;23;20982;-79
2024/02/20 09:34:33;;;;;;;6.97;3.40;;;;;;;11.31;86.93;99438.91;5189313;22;21082;-80
2024/02/20 09:36:38;;;;;;;13.97;4.23;;;;;;;11.31;86.04;99438.91;5135701;23;20962;-80
2024/02/20 09:38:41;;;;;;;8.93;3.50;;;;;;;11.30;86.50;99438.03;5160565;23;20608;-80
2024/02/20 09:40:45;;;;;;;13.10;4.87;;;;;;;11.33;84.35;99444.88;5136443;23;20593;-80